createdAt,value
2022-09-07T00:00:43.856Z,3.63
2022-09-07T00:03:12.991Z,6.90
2022-09-07T00:05:43.166Z,3.33
2022-09-07T00:08:11.513Z,4.43
2022-09-07T00:10:39.565Z,4.30
2022-09-07T00:13:07.769Z,5.33
2022-09-07T00:15:39.483Z,2.17
2022-09-07T00:18:07.628Z,4.60
2022-09-07T00:20:36.686Z,2.90
2022-09-07T00:23:04.372Z,6.33
2022-09-07T00:25:32.290Z,5.27
2022-09-07T00:28:00.257Z,1.37
2022-09-07T00:30:28.367Z,4.27
2022-09-07T00:32:56.022Z,3.17
2022-09-07T00:35:23.729Z,6.23
2022-09-07T00:37:52.886Z,3.33
2022-09-07T00:40:20.554Z,7.73
2022-09-07T00:42:48.267Z,4.47
2022-09-07T00:45:18.024Z,4.93
2022-09-07T00:47:51.215Z,5.77
2022-09-07T00:50:23.347Z,5.20
2022-09-07T00:52:56.102Z,3.10
2022-09-07T00:55:23.960Z,3.70
2022-09-07T00:57:54.817Z,2.00
2022-09-07T01:00:23.101Z,2.83
2022-09-07T01:02:55.693Z,1.70
2022-09-07T01:05:28.029Z,5.43
2022-09-07T01:07:57.867Z,4.63
2022-09-07T01:10:27.813Z,3.80
2022-09-07T01:12:55.460Z,5.73
2022-09-07T01:15:25.063Z,4.23
2022-09-07T01:18:00.145Z,4.67
2022-09-07T01:20:52.320Z,5.90
2022-09-07T01:23:56.237Z,2.13
2022-09-07T01:26:59.711Z,2.77
2022-09-07T01:29:31.195Z,2.50
2022-09-07T01:32:05.341Z,2.50
2022-09-07T01:34:33.190Z,3.80
2022-09-07T01:37:07.870Z,4.80
2022-09-07T01:39:41.783Z,2.73
2022-09-07T01:42:11.531Z,2.90
2022-09-07T01:44:41.780Z,2.07
2022-09-07T01:47:13.955Z,3.23
2022-09-07T01:49:46.630Z,3.87
2022-09-07T01:52:16.593Z,5.70
2022-09-07T01:54:48.466Z,1.93
2022-09-07T01:57:19.865Z,9.83
2022-09-07T01:59:53.463Z,2.30
2022-09-07T02:02:23.061Z,4.47
2022-09-07T02:04:54.385Z,5.07
2022-09-07T02:07:25.763Z,4.83
2022-09-07T02:09:55.726Z,2.60
2022-09-07T02:12:25.937Z,2.37
2022-09-07T02:14:57.849Z,3.97
2022-09-07T02:17:31.056Z,2.50
2022-09-07T02:20:04.524Z,2.33
2022-09-07T02:22:34.814Z,1.73
2022-09-07T02:25:04.967Z,2.07
2022-09-07T02:27:37.273Z,3.00
2022-09-07T02:30:07.366Z,3.20
2022-09-07T02:32:35.031Z,2.17
2022-09-07T02:35:03.081Z,2.83
2022-09-07T02:37:31.583Z,4.37
2022-09-07T02:40:00.347Z,1.87
2022-09-07T02:42:30.137Z,2.53
2022-09-07T02:44:57.897Z,3.60
2022-09-07T02:47:32.623Z,3.77
2022-09-07T02:50:14.041Z,5.03
2022-09-07T02:52:47.174Z,3.97
2022-09-07T02:55:27.009Z,2.03
2022-09-07T02:58:03.406Z,5.93
2022-09-07T03:00:34.389Z,2.90
2022-09-07T03:03:09.574Z,3.03
2022-09-07T03:05:41.310Z,2.83
2022-09-07T03:08:12.902Z,3.00
2022-09-07T03:10:41.242Z,3.27
2022-09-07T03:13:09.005Z,4.50
2022-09-07T03:15:36.804Z,8.10
2022-09-07T03:18:06.251Z,4.90
2022-09-07T03:20:33.882Z,3.50
2022-09-07T03:23:01.527Z,3.67
2022-09-07T03:25:29.295Z,5.77
2022-09-07T03:27:57.019Z,4.33
2022-09-07T03:30:24.655Z,4.27
2022-09-07T03:32:52.347Z,3.97
2022-09-07T03:35:21.818Z,5.70
2022-09-07T03:37:49.562Z,5.63
2022-09-07T03:40:18.138Z,6.40
2022-09-07T03:42:49.278Z,2.93
2022-09-07T03:45:17.054Z,3.90
2022-09-07T03:47:45.337Z,3.67
2022-09-07T03:50:13.144Z,3.63
2022-09-07T03:52:42.194Z,4.93
2022-09-07T03:55:10.062Z,4.53
2022-09-07T03:57:37.734Z,3.00
2022-09-07T04:00:06.507Z,2.60
2022-09-07T04:02:34.807Z,3.83
2022-09-07T04:05:02.538Z,3.60
2022-09-07T04:07:30.503Z,5.07
2022-09-07T04:09:59.518Z,2.40
2022-09-07T04:12:27.166Z,2.53
2022-09-07T04:14:55.686Z,8.13
2022-09-07T04:17:23.381Z,3.50
2022-09-07T04:19:51.437Z,4.20
2022-09-07T04:22:19.142Z,7.33
2022-09-07T04:24:46.762Z,3.23
2022-09-07T04:27:15.790Z,4.73
2022-09-07T04:29:43.422Z,4.90
2022-09-07T04:32:15.531Z,6.27
2022-09-07T04:34:43.555Z,5.27
2022-09-07T04:37:12.486Z,7.50
2022-09-07T04:39:40.204Z,5.10
2022-09-07T04:42:08.173Z,8.03
2022-09-07T04:44:37.208Z,11.90
2022-09-07T04:47:04.982Z,7.93
2022-09-07T04:49:32.650Z,7.77
2022-09-07T04:52:00.378Z,9.10
2022-09-07T04:54:27.994Z,9.03
2022-09-07T04:56:55.625Z,12.13
2022-09-07T04:59:23.292Z,7.97
2022-09-07T05:01:52.338Z,13.60
2022-09-07T05:04:20.034Z,14.00
2022-09-07T05:06:47.719Z,10.43
2022-09-07T05:09:15.573Z,11.57
2022-09-07T05:11:44.361Z,13.13
2022-09-07T05:14:12.223Z,12.90
2022-09-07T05:16:39.957Z,9.03
2022-09-07T05:19:12.041Z,7.03
2022-09-07T05:21:40.079Z,11.03
2022-09-07T05:24:08.403Z,9.27
2022-09-07T05:26:38.380Z,11.47
2022-09-07T05:31:55.795Z,14.93
2022-09-07T05:36:55.836Z,12.27
2022-09-07T05:39:23.565Z,16.90
2022-09-07T05:41:51.240Z,14.43
2022-09-07T05:47:07.353Z,15.63
2022-09-07T05:49:37.054Z,20.30
2022-09-07T05:52:05.140Z,20.20
2022-09-07T05:54:32.791Z,18.60
2022-09-07T05:57:00.590Z,11.13
2022-09-07T05:59:28.214Z,8.60
2022-09-07T06:01:55.961Z,11.43
2022-09-07T06:04:23.720Z,10.67
2022-09-07T06:07:19.928Z,6.23
2022-09-07T06:12:28.471Z,6.80
2022-09-07T06:14:56.175Z,5.20
2022-09-07T06:17:23.837Z,9.47
2022-09-07T06:19:51.569Z,7.80
2022-09-07T06:22:20.719Z,13.57
2022-09-07T06:24:48.477Z,8.00
2022-09-07T06:27:16.361Z,7.53
2022-09-07T06:29:43.983Z,8.53
2022-09-07T06:34:59.341Z,14.30
2022-09-07T06:37:28.363Z,13.17
2022-09-07T06:39:56.172Z,12.17
2022-09-07T06:42:23.915Z,13.10
2022-09-07T06:44:51.677Z,20.97
2022-09-07T06:47:19.750Z,17.63
2022-09-07T06:49:47.424Z,18.10
2022-09-07T06:52:15.073Z,14.83
2022-09-07T06:54:59.655Z,22.03
2022-09-07T06:57:28.023Z,16.80
2022-09-07T06:59:56.147Z,19.23
2022-09-07T07:02:23.807Z,15.77
2022-09-07T07:04:51.674Z,23.23
2022-09-07T07:07:19.404Z,17.83
2022-09-07T07:09:51.149Z,17.30
2022-09-07T07:14:45.546Z,24.37
2022-09-07T07:17:13.517Z,18.33
2022-09-07T07:19:41.350Z,18.80
2022-09-07T07:22:45.437Z,20.67
2022-09-07T07:24:58.083Z,20.97
2022-09-07T07:27:25.701Z,19.57
2022-09-07T07:29:54.104Z,19.07
2022-09-07T07:32:21.986Z,20.17
2022-09-07T07:34:49.580Z,21.27
2022-09-07T07:37:17.442Z,16.50
2022-09-07T07:42:35.543Z,19.63
2022-09-07T07:47:51.953Z,18.80
2022-09-07T07:50:35.498Z,15.90
2022-09-07T07:55:50.986Z,10.00
2022-09-07T07:58:20.879Z,7.50
2022-09-07T08:00:54.603Z,7.77
2022-09-07T08:03:23.338Z,4.73
2022-09-07T08:05:51.063Z,3.83
2022-09-07T08:08:18.818Z,5.27
2022-09-07T08:10:47.857Z,3.60
2022-09-07T08:13:16.049Z,6.20
2022-09-07T08:15:46.291Z,4.70
2022-09-07T08:18:14.768Z,3.30
2022-09-07T08:20:42.789Z,3.57
2022-09-07T08:23:10.623Z,5.97
2022-09-07T08:25:38.203Z,3.73
2022-09-07T08:28:05.880Z,4.67
2022-09-07T08:30:33.451Z,3.43
2022-09-07T08:33:02.316Z,5.70
2022-09-07T08:35:29.847Z,4.73
2022-09-07T08:37:58.184Z,6.93
2022-09-07T08:40:26.968Z,5.03
2022-09-07T08:43:03.022Z,3.50
2022-09-07T08:45:33.427Z,2.63
2022-09-07T08:48:05.140Z,3.20
2022-09-07T08:50:35.494Z,2.37
2022-09-07T08:53:07.767Z,3.17
2022-09-07T08:55:37.703Z,1.60
2022-09-07T08:58:17.693Z,1.53
2022-09-07T09:01:30.793Z,1.60
2022-09-07T09:06:42.545Z,3.33
2022-09-07T09:09:18.857Z,3.33
2022-09-07T09:11:53.745Z,1.40
2022-09-07T09:17:00.966Z,1.63
2022-09-07T09:19:40.398Z,5.37
2022-09-07T09:22:13.652Z,2.90
2022-09-07T09:24:44.857Z,2.53
2022-09-07T09:27:12.791Z,1.30
2022-09-07T09:29:40.459Z,1.37
2022-09-07T09:32:34.157Z,3.43
2022-09-07T09:35:05.738Z,2.40
2022-09-07T09:37:37.740Z,2.17
2022-09-07T09:40:18.782Z,1.57
2022-09-07T09:42:46.707Z,4.10
2022-09-07T09:45:19.464Z,2.13
2022-09-07T09:47:49.981Z,1.50
2022-09-07T09:53:24.850Z,3.30
2022-09-07T09:55:53.039Z,3.27
2022-09-07T10:01:26.912Z,5.03
2022-09-07T10:03:56.572Z,2.93
2022-09-07T10:06:27.330Z,2.50
2022-09-07T10:08:57.526Z,2.57
2022-09-07T10:14:31.174Z,3.03
2022-09-07T10:16:59.473Z,1.50
2022-09-07T10:19:32.669Z,4.27
2022-09-07T10:22:03.150Z,3.13
2022-09-07T10:24:34.281Z,3.87
2022-09-07T10:27:02.114Z,3.80
2022-09-07T10:29:30.805Z,3.10
2022-09-07T10:32:18.475Z,3.23
2022-09-07T10:35:06.103Z,5.10
2022-09-07T10:37:42.398Z,5.13
2022-09-07T10:40:21.805Z,2.47
2022-09-07T10:45:47.312Z,2.87
2022-09-07T10:48:19.113Z,7.10
2022-09-07T10:50:49.641Z,3.03
2022-09-07T10:53:43.146Z,4.53
2022-09-07T10:56:12.497Z,3.17
2022-09-07T10:59:06.844Z,6.77
2022-09-07T11:01:44.119Z,4.13
2022-09-07T11:04:36.112Z,1.70
2022-09-07T11:07:14.929Z,5.70
2022-09-07T11:09:52.914Z,3.17
2022-09-07T11:12:27.435Z,3.00
2022-09-07T11:15:05.030Z,5.40
2022-09-07T11:17:44.283Z,3.87
2022-09-07T11:20:18.878Z,5.27
2022-09-07T11:22:50.071Z,2.13
2022-09-07T11:25:30.395Z,2.97
2022-09-07T11:28:00.537Z,5.20
2022-09-07T11:30:31.234Z,3.03
2022-09-07T11:33:05.837Z,3.23
2022-09-07T11:35:38.250Z,5.13
2022-09-07T11:38:15.106Z,2.50
2022-09-07T11:40:52.169Z,3.63
2022-09-07T11:43:22.717Z,3.30
2022-09-07T11:45:53.694Z,9.30
2022-09-07T11:48:30.311Z,4.30
2022-09-07T11:51:00.522Z,3.47
2022-09-07T11:53:31.099Z,3.40
2022-09-07T11:56:04.383Z,11.73
2022-09-07T11:59:01.403Z,5.60
2022-09-07T12:01:35.873Z,10.73
2022-09-07T12:04:24.786Z,2.90
2022-09-07T12:07:07.527Z,5.83
2022-09-07T12:09:47.040Z,6.13
2022-09-07T12:12:30.862Z,6.60
2022-09-07T12:15:04.599Z,5.90
2022-09-07T12:17:42.543Z,5.90
2022-09-07T12:20:15.388Z,5.63
2022-09-07T12:23:04.275Z,9.93
2022-09-07T12:25:33.297Z,6.53
2022-09-07T12:28:02.596Z,7.03
2022-09-07T12:30:58.422Z,6.03
2022-09-07T12:33:28.556Z,7.37
2022-09-07T12:35:58.810Z,2.50
2022-09-07T12:39:09.287Z,6.77
2022-09-07T12:41:48.758Z,3.53
2022-09-07T12:44:26.104Z,5.60
2022-09-07T12:46:59.040Z,3.30
2022-09-07T12:50:04.948Z,3.73
2022-09-07T12:52:48.691Z,3.63
2022-09-07T12:55:29.719Z,6.10
2022-09-07T12:58:10.394Z,7.20
2022-09-07T13:00:49.577Z,2.57
2022-09-07T13:06:18.956Z,2.70
2022-09-07T13:09:29.682Z,3.07
2022-09-07T13:11:57.738Z,3.60
2022-09-07T13:14:27.042Z,2.63
2022-09-07T13:17:38.785Z,2.63
2022-09-07T13:20:23.474Z,2.93
2022-09-07T13:23:08.106Z,3.27
2022-09-07T13:25:53.449Z,3.63
2022-09-07T13:28:40.361Z,1.90
2022-09-07T13:31:26.056Z,5.47
2022-09-07T13:33:57.020Z,5.93
2022-09-07T13:36:41.639Z,3.47
2022-09-07T13:39:14.082Z,1.83
2022-09-07T13:41:45.125Z,3.03
2022-09-07T13:44:25.832Z,3.23
2022-09-07T13:47:07.906Z,1.57
2022-09-07T13:49:56.220Z,3.97
2022-09-07T13:52:29.750Z,1.57
2022-09-07T13:55:07.562Z,3.87
2022-09-07T13:57:47.051Z,5.27
2022-09-07T14:00:15.602Z,3.00
2022-09-07T14:02:43.378Z,3.57
2022-09-07T14:05:18.555Z,4.93
2022-09-07T14:07:47.173Z,3.20
2022-09-07T14:10:19.737Z,3.37
2022-09-07T14:12:49.792Z,2.57
2022-09-07T14:15:24.934Z,4.50
2022-09-07T14:18:03.253Z,5.03
2022-09-07T14:20:32.921Z,3.07
2022-09-07T14:23:00.754Z,2.17
2022-09-07T14:25:28.654Z,7.80
2022-09-07T14:27:57.699Z,1.83
2022-09-07T14:30:28.051Z,6.53
2022-09-07T14:32:57.245Z,2.60
2022-09-07T14:35:28.448Z,12.03
2022-09-07T14:38:03.418Z,6.43
2022-09-07T14:40:30.989Z,8.80
2022-09-07T14:42:58.778Z,3.63
2022-09-07T14:45:34.520Z,6.47
2022-09-07T14:48:12.850Z,3.03
2022-09-07T14:50:41.213Z,4.20
2022-09-07T14:53:34.900Z,3.07
2022-09-07T14:56:04.741Z,6.37
2022-09-07T14:58:32.637Z,3.33
2022-09-07T15:04:01.015Z,4.83
2022-09-07T15:09:30.723Z,4.73
2022-09-07T15:12:10.968Z,3.77
2022-09-07T15:14:38.518Z,2.13
2022-09-07T15:19:53.969Z,7.13
2022-09-07T15:22:21.994Z,2.53
2022-09-07T15:24:51.114Z,3.33
2022-09-07T15:27:19.809Z,3.30
2022-09-07T15:29:47.470Z,4.23
2022-09-07T15:32:20.170Z,2.00
2022-09-07T15:34:47.826Z,2.33
2022-09-07T15:40:07.686Z,1.93
2022-09-07T15:45:23.261Z,5.03
2022-09-07T15:47:53.022Z,4.53
2022-09-07T15:50:23.158Z,3.83
2022-09-07T15:52:51.067Z,2.03
2022-09-07T15:55:19.924Z,3.27
2022-09-07T15:57:51.197Z,4.13
2022-09-07T16:00:24.305Z,5.57
2022-09-07T16:03:08.653Z,6.83
2022-09-07T16:05:36.864Z,4.93
2022-09-07T16:10:55.379Z,7.80
2022-09-07T16:13:24.664Z,6.83
2022-09-07T16:15:52.446Z,2.70
2022-09-07T16:18:20.202Z,3.17
2022-09-07T16:20:52.448Z,4.30
2022-09-07T16:23:20.460Z,7.80
2022-09-07T16:25:59.447Z,4.93
2022-09-07T16:28:27.761Z,4.30
2022-09-07T16:30:56.319Z,5.60
2022-09-07T16:33:31.637Z,3.53
2022-09-07T16:36:06.788Z,6.33
2022-09-07T16:38:50.373Z,7.23
2022-09-07T16:41:21.216Z,5.73
2022-09-07T16:43:49.601Z,2.60
2022-09-07T16:46:18.892Z,3.37
2022-09-07T16:48:47.413Z,4.93
2022-09-07T16:51:19.580Z,5.20
2022-09-07T16:53:47.332Z,5.77
2022-09-07T16:56:16.874Z,3.00
2022-09-07T16:58:48.000Z,5.93
2022-09-07T17:01:17.458Z,4.87
2022-09-07T17:03:45.174Z,2.73
2022-09-07T17:06:14.411Z,5.43
2022-09-07T17:08:42.545Z,5.20
2022-09-07T17:11:11.625Z,1.73
2022-09-07T17:13:40.917Z,7.27
2022-09-07T17:16:12.027Z,1.83
2022-09-07T17:21:30.289Z,6.90
2022-09-07T17:23:57.861Z,4.03
2022-09-07T17:26:27.651Z,6.30
2022-09-07T17:29:00.124Z,4.20
2022-09-07T17:34:19.867Z,4.70
2022-09-07T17:36:47.518Z,5.50
2022-09-07T17:39:17.645Z,4.03
2022-09-07T17:41:46.232Z,2.63
2022-09-07T17:44:13.787Z,3.90
2022-09-07T17:46:42.741Z,6.70
2022-09-07T17:49:12.528Z,2.83
2022-09-07T17:51:40.769Z,5.77
2022-09-07T17:54:10.848Z,9.73
2022-09-07T17:56:39.675Z,2.93
2022-09-07T18:01:56.491Z,7.33
2022-09-07T18:04:24.475Z,5.03
2022-09-07T18:06:52.402Z,3.80
2022-09-07T18:09:21.053Z,2.00
2022-09-07T18:11:49.758Z,4.40
2022-09-07T18:14:18.522Z,9.20
2022-09-07T18:16:48.818Z,3.63
2022-09-07T18:19:18.764Z,5.43
2022-09-07T18:21:47.730Z,4.07
2022-09-07T18:24:17.649Z,3.10
2022-09-07T18:26:51.820Z,7.90
2022-09-07T18:29:36.898Z,2.93
2022-09-07T18:32:08.473Z,11.47
2022-09-07T18:34:40.716Z,6.50
2022-09-07T18:37:08.758Z,8.97
2022-09-07T18:39:36.718Z,5.97
2022-09-07T18:42:05.203Z,5.97
2022-09-07T18:47:27.515Z,4.23
2022-09-07T18:49:58.258Z,5.80
2022-09-07T18:55:14.155Z,4.90
2022-09-07T18:57:41.795Z,3.37
2022-09-07T19:00:16.168Z,5.97
2022-09-07T19:02:47.496Z,5.27
2022-09-07T19:08:04.736Z,3.67
2022-09-07T19:10:35.259Z,2.10
2022-09-07T19:13:03.013Z,6.90
2022-09-07T19:15:33.163Z,4.33
2022-09-07T19:18:05.580Z,6.00
2022-09-07T19:20:36.209Z,5.50
2022-09-07T19:23:04.254Z,5.00
2022-09-07T19:25:31.810Z,3.23
2022-09-07T19:27:59.547Z,7.07
2022-09-07T19:30:27.852Z,4.27
2022-09-07T19:32:55.406Z,3.90
2022-09-07T19:35:23.206Z,4.17
2022-09-07T19:37:52.062Z,3.57
2022-09-07T19:40:21.233Z,5.13
2022-09-07T19:42:48.782Z,1.70
2022-09-07T19:45:16.467Z,7.70
2022-09-07T19:47:44.191Z,3.43
2022-09-07T19:50:11.977Z,4.20
2022-09-07T19:52:39.534Z,3.03
2022-09-07T19:55:09.789Z,4.37
2022-09-07T19:57:37.321Z,4.90
2022-09-07T20:00:05.822Z,6.37
2022-09-07T20:02:34.011Z,3.47
2022-09-07T20:05:01.538Z,4.63
2022-09-07T20:07:29.129Z,7.03
2022-09-07T20:09:56.650Z,4.13
2022-09-07T20:12:25.821Z,6.50
2022-09-07T20:14:53.351Z,5.00
2022-09-07T20:17:20.871Z,6.80
2022-09-07T20:19:50.493Z,3.50
2022-09-07T20:22:18.109Z,6.10
2022-09-07T20:24:45.765Z,6.70
2022-09-07T20:27:13.303Z,6.53
2022-09-07T20:29:42.265Z,4.20
2022-09-07T20:32:09.931Z,5.87
2022-09-07T20:34:37.682Z,4.43
2022-09-07T20:37:06.359Z,5.30
2022-09-07T20:39:38.887Z,2.63
2022-09-07T20:42:08.069Z,9.20
2022-09-07T20:44:35.889Z,4.63
2022-09-07T20:47:05.019Z,6.13
2022-09-07T20:49:32.605Z,9.10
2022-09-07T20:52:00.368Z,3.80
2022-09-07T20:54:28.111Z,3.50
2022-09-07T20:56:55.605Z,3.00
2022-09-07T20:59:23.985Z,5.93
2022-09-07T21:01:51.550Z,7.70
2022-09-07T21:04:23.344Z,3.50
2022-09-07T21:06:50.846Z,5.40
2022-09-07T21:09:18.990Z,6.67
2022-09-07T21:11:49.710Z,13.03
2022-09-07T21:14:19.733Z,4.67
2022-09-07T21:16:47.606Z,7.10
2022-09-07T21:19:15.769Z,5.43
2022-09-07T21:21:44.766Z,7.80
2022-09-07T21:24:17.762Z,5.07
2022-09-07T21:26:45.655Z,6.40
2022-09-07T21:29:17.301Z,4.13
2022-09-07T21:31:45.213Z,9.53
2022-09-07T21:34:13.663Z,8.00
2022-09-07T21:36:41.256Z,12.30
2022-09-07T21:39:13.801Z,4.00
2022-09-07T21:41:42.935Z,4.50
2022-09-07T21:44:12.582Z,8.47
2022-09-07T21:46:40.596Z,9.33
2022-09-07T21:49:08.371Z,7.47
2022-09-07T21:51:36.143Z,8.13
2022-09-07T21:54:03.802Z,9.13
2022-09-07T21:56:32.848Z,7.77
2022-09-07T21:59:02.242Z,6.60
2022-09-07T22:01:30.721Z,9.13
2022-09-07T22:04:00.091Z,7.83
2022-09-07T22:06:28.478Z,6.33
2022-09-07T22:08:56.335Z,6.63
2022-09-07T22:11:26.645Z,5.50
2022-09-07T22:13:56.683Z,4.53
2022-09-07T22:16:24.574Z,7.33
2022-09-07T22:18:52.789Z,6.23
2022-09-07T22:21:21.839Z,10.87
2022-09-07T22:23:52.238Z,9.83
2022-09-07T22:26:21.710Z,6.93
2022-09-07T22:28:49.816Z,6.53
2022-09-07T22:31:20.175Z,8.80
2022-09-07T22:33:48.702Z,7.00
2022-09-07T22:36:17.878Z,4.80
2022-09-07T22:38:46.893Z,5.90
2022-09-07T22:41:16.038Z,5.93
2022-09-07T22:43:44.445Z,8.77
2022-09-07T22:46:12.771Z,6.33
2022-09-07T22:48:43.243Z,6.87
2022-09-07T22:51:11.366Z,4.13
2022-09-07T22:53:40.325Z,6.17
2022-09-07T22:56:08.774Z,15.47
2022-09-07T22:58:36.639Z,8.00
2022-09-07T23:01:05.140Z,6.60
2022-09-07T23:03:34.656Z,9.63
2022-09-07T23:06:04.561Z,5.27
2022-09-07T23:08:32.558Z,5.97
2022-09-07T23:11:04.403Z,6.80
2022-09-07T23:13:32.430Z,8.87
2022-09-07T23:16:04.487Z,4.80
2022-09-07T23:18:32.392Z,5.70
2022-09-07T23:21:00.735Z,7.03
2022-09-07T23:23:30.584Z,7.07
2022-09-07T23:26:01.135Z,10.57
2022-09-07T23:28:29.344Z,8.03
2022-09-07T23:30:57.140Z,5.77
2022-09-07T23:33:26.150Z,6.43
2022-09-07T23:35:58.154Z,5.97
2022-09-07T23:38:26.265Z,5.97
2022-09-07T23:40:55.384Z,4.40
2022-09-07T23:43:23.169Z,3.73
2022-09-07T23:45:50.887Z,7.07
2022-09-07T23:48:18.475Z,7.27
2022-09-07T23:50:47.010Z,5.13
2022-09-07T23:53:14.940Z,5.93
2022-09-07T23:55:43.423Z,8.87
2022-09-07T23:58:12.525Z,3.90
